sensor_id;sensor_type;location;lat;lon;timestamp;temperature;humidity
4635;DHT22;2330;48.158;11.816;2024-03-07T00:00:12;3.90;98.50
4635;DHT22;2330;48.158;11.816;2024-03-07T00:02:48;3.90;98.50
4635;DHT22;2330;48.158;11.816;2024-03-07T00:05:17;3.90;98.50
4635;DHT22;2330;48.158;11.816;2024-03-07T00:07:44;3.90;98.50
4635;DHT22;2330;48.158;11.816;2024-03-07T00:10:11;4.00;98.50
4635;DHT22;2330;48.158;11.816;2024-03-07T00:12:39;4.10;98.50
4635;DHT22;2330;48.158;11.816;2024-03-07T00:15:08;4.10;98.50
4635;DHT22;2330;48.158;11.816;2024-03-07T00:17:36;4.10;98.50
4635;DHT22;2330;48.158;11.816;2024-03-07T00:20:03;4.10;98.50
4635;DHT22;2330;48.158;11.816;2024-03-07T00:22:31;4.00;98.50
4635;DHT22;2330;48.158;11.816;2024-03-07T00:24:58;4.00;98.50
4635;DHT22;2330;48.158;11.816;2024-03-07T00:27:25;4.00;98.50
4635;DHT22;2330;48.158;11.816;2024-03-07T00:29:52;4.10;98.50
4635;DHT22;2330;48.158;11.816;2024-03-07T00:32:23;3.90;98.50
4635;DHT22;2330;48.158;11.816;2024-03-07T00:34:50;3.80;98.50
4635;DHT22;2330;48.158;11.816;2024-03-07T00:37:17;3.80;98.50
4635;DHT22;2330;48.158;11.816;2024-03-07T00:39:44;3.80;98.50
4635;DHT22;2330;48.158;11.816;2024-03-07T00:42:11;3.70;98.50
4635;DHT22;2330;48.158;11.816;2024-03-07T00:44:38;3.80;98.50
4635;DHT22;2330;48.158;11.816;2024-03-07T00:47:05;3.80;98.50
4635;DHT22;2330;48.158;11.816;2024-03-07T00:49:32;3.80;98.50
4635;DHT22;2330;48.158;11.816;2024-03-07T00:51:59;3.80;98.50
4635;DHT22;2330;48.158;11.816;2024-03-07T00:54:26;3.80;98.50
4635;DHT22;2330;48.158;11.816;2024-03-07T00:56:53;3.80;98.50
4635;DHT22;2330;48.158;11.816;2024-03-07T00:59:21;3.80;98.50
4635;DHT22;2330;48.158;11.816;2024-03-07T01:01:49;3.70;98.50
4635;DHT22;2330;48.158;11.816;2024-03-07T01:04:16;3.70;98.50
4635;DHT22;2330;48.158;11.816;2024-03-07T01:06:43;3.70;98.50
4635;DHT22;2330;48.158;11.816;2024-03-07T01:09:10;3.70;98.50
4635;DHT22;2330;48.158;11.816;2024-03-07T01:11:43;3.70;98.50
4635;DHT22;2330;48.158;11.816;2024-03-07T01:14:12;3.70;98.50
4635;DHT22;2330;48.158;11.816;2024-03-07T01:16:40;3.70;98.50
4635;DHT22;2330;48.158;11.816;2024-03-07T01:19:07;3.70;98.50
4635;DHT22;2330;48.158;11.816;2024-03-07T01:21:35;3.60;98.50
4635;DHT22;2330;48.158;11.816;2024-03-07T01:24:05;3.60;98.50
4635;DHT22;2330;48.158;11.816;2024-03-07T01:26:32;3.60;98.50
4635;DHT22;2330;48.158;11.816;2024-03-07T01:29:02;3.60;98.50
4635;DHT22;2330;48.158;11.816;2024-03-07T01:31:29;3.60;98.50
4635;DHT22;2330;48.158;11.816;2024-03-07T01:33:55;3.70;98.50
4635;DHT22;2330;48.158;11.816;2024-03-07T01:36:22;3.70;98.50
4635;DHT22;2330;48.158;11.816;2024-03-07T01:38:49;3.70;98.50
4635;DHT22;2330;48.158;11.816;2024-03-07T01:41:16;3.70;98.50
4635;DHT22;2330;48.158;11.816;2024-03-07T01:43:43;3.70;98.50
4635;DHT22;2330;48.158;11.816;2024-03-07T01:46:10;3.70;98.50
4635;DHT22;2330;48.158;11.816;2024-03-07T01:48:37;3.70;98.50
4635;DHT22;2330;48.158;11.816;2024-03-07T01:51:05;3.70;98.50
4635;DHT22;2330;48.158;11.816;2024-03-07T01:53:33;3.70;98.50
4635;DHT22;2330;48.158;11.816;2024-03-07T01:56:02;3.70;98.50
4635;DHT22;2330;48.158;11.816;2024-03-07T01:58:29;3.70;98.50
4635;DHT22;2330;48.158;11.816;2024-03-07T02:00:58;3.70;98.50
4635;DHT22;2330;48.158;11.816;2024-03-07T02:03:25;3.70;98.50
4635;DHT22;2330;48.158;11.816;2024-03-07T02:05:52;3.80;98.50
4635;DHT22;2330;48.158;11.816;2024-03-07T02:08:20;3.80;98.50
4635;DHT22;2330;48.158;11.816;2024-03-07T02:10:47;3.80;98.50
4635;DHT22;2330;48.158;11.816;2024-03-07T02:13:14;3.90;98.50
4635;DHT22;2330;48.158;11.816;2024-03-07T02:15:40;3.90;98.50
4635;DHT22;2330;48.158;11.816;2024-03-07T02:18:09;3.90;98.50
4635;DHT22;2330;48.158;11.816;2024-03-07T02:20:37;3.90;98.50
4635;DHT22;2330;48.158;11.816;2024-03-07T02:23:04;4.00;98.50
4635;DHT22;2330;48.158;11.816;2024-03-07T02:25:31;4.00;98.50
4635;DHT22;2330;48.158;11.816;2024-03-07T02:27:59;4.00;98.50
4635;DHT22;2330;48.158;11.816;2024-03-07T02:30:26;4.00;98.50
4635;DHT22;2330;48.158;11.816;2024-03-07T02:32:52;4.00;98.50
4635;DHT22;2330;48.158;11.816;2024-03-07T02:35:22;4.00;98.50
4635;DHT22;2330;48.158;11.816;2024-03-07T02:37:51;4.00;98.50
4635;DHT22;2330;48.158;11.816;2024-03-07T02:40:17;4.00;98.50
4635;DHT22;2330;48.158;11.816;2024-03-07T02:42:44;4.10;98.50
4635;DHT22;2330;48.158;11.816;2024-03-07T02:45:11;4.10;98.50
4635;DHT22;2330;48.158;11.816;2024-03-07T02:47:41;4.10;98.50
4635;DHT22;2330;48.158;11.816;2024-03-07T02:50:10;4.20;98.50
4635;DHT22;2330;48.158;11.816;2024-03-07T02:52:38;4.20;98.50
4635;DHT22;2330;48.158;11.816;2024-03-07T02:55:06;4.20;98.50
4635;DHT22;2330;48.158;11.816;2024-03-07T02:57:36;4.20;98.50
4635;DHT22;2330;48.158;11.816;2024-03-07T03:00:04;4.20;98.50
4635;DHT22;2330;48.158;11.816;2024-03-07T03:02:40;4.10;98.50
4635;DHT22;2330;48.158;11.816;2024-03-07T03:05:07;4.10;98.50
4635;DHT22;2330;48.158;11.816;2024-03-07T03:07:36;4.20;98.50
4635;DHT22;2330;48.158;11.816;2024-03-07T03:10:04;4.20;98.50
4635;DHT22;2330;48.158;11.816;2024-03-07T03:12:33;4.20;98.50
4635;DHT22;2330;48.158;11.816;2024-03-07T03:15:05;4.20;98.50
4635;DHT22;2330;48.158;11.816;2024-03-07T03:17:33;4.20;98.50
4635;DHT22;2330;48.158;11.816;2024-03-07T03:20:00;4.20;98.50
4635;DHT22;2330;48.158;11.816;2024-03-07T03:22:27;4.30;98.50
4635;DHT22;2330;48.158;11.816;2024-03-07T03:24:54;4.20;98.50
4635;DHT22;2330;48.158;11.816;2024-03-07T03:27:22;4.20;98.50
4635;DHT22;2330;48.158;11.816;2024-03-07T03:29:48;4.20;98.50
4635;DHT22;2330;48.158;11.816;2024-03-07T03:32:17;4.20;98.50
4635;DHT22;2330;48.158;11.816;2024-03-07T03:34:44;4.10;98.50
4635;DHT22;2330;48.158;11.816;2024-03-07T03:37:11;4.10;98.50
4635;DHT22;2330;48.158;11.816;2024-03-07T03:39:38;4.10;98.50
4635;DHT22;2330;48.158;11.816;2024-03-07T03:42:05;4.10;98.50
4635;DHT22;2330;48.158;11.816;2024-03-07T03:44:33;4.10;98.50
4635;DHT22;2330;48.158;11.816;2024-03-07T03:47:01;4.10;98.50
4635;DHT22;2330;48.158;11.816;2024-03-07T03:49:28;4.10;98.50
4635;DHT22;2330;48.158;11.816;2024-03-07T03:51:55;4.00;98.50
4635;DHT22;2330;48.158;11.816;2024-03-07T03:54:22;4.00;98.50
4635;DHT22;2330;48.158;11.816;2024-03-07T03:56:49;4.00;98.50
4635;DHT22;2330;48.158;11.816;2024-03-07T03:59:16;4.00;98.50
4635;DHT22;2330;48.158;11.816;2024-03-07T04:01:42;3.90;98.50
4635;DHT22;2330;48.158;11.816;2024-03-07T04:04:12;4.00;98.50
4635;DHT22;2330;48.158;11.816;2024-03-07T04:06:39;4.00;98.50
4635;DHT22;2330;48.158;11.816;2024-03-07T04:09:06;4.00;98.50
4635;DHT22;2330;48.158;11.816;2024-03-07T04:11:33;4.00;98.50
4635;DHT22;2330;48.158;11.816;2024-03-07T04:14:01;3.90;98.50
4635;DHT22;2330;48.158;11.816;2024-03-07T04:16:28;3.90;98.50
4635;DHT22;2330;48.158;11.816;2024-03-07T04:18:54;3.90;98.50
4635;DHT22;2330;48.158;11.816;2024-03-07T04:21:21;3.80;98.50
4635;DHT22;2330;48.158;11.816;2024-03-07T04:23:48;3.80;98.50
4635;DHT22;2330;48.158;11.816;2024-03-07T04:26:15;3.80;98.50
4635;DHT22;2330;48.158;11.816;2024-03-07T04:28:41;3.80;98.50
4635;DHT22;2330;48.158;11.816;2024-03-07T04:31:08;3.80;98.50
4635;DHT22;2330;48.158;11.816;2024-03-07T04:33:35;3.80;98.50
4635;DHT22;2330;48.158;11.816;2024-03-07T04:36:02;3.80;98.50
4635;DHT22;2330;48.158;11.816;2024-03-07T04:38:29;3.80;98.50
4635;DHT22;2330;48.158;11.816;2024-03-07T04:40:57;3.70;98.50
4635;DHT22;2330;48.158;11.816;2024-03-07T04:43:23;3.70;98.50
4635;DHT22;2330;48.158;11.816;2024-03-07T04:45:52;3.80;98.50
4635;DHT22;2330;48.158;11.816;2024-03-07T04:48:19;3.80;98.50
4635;DHT22;2330;48.158;11.816;2024-03-07T04:50:46;3.70;98.50
4635;DHT22;2330;48.158;11.816;2024-03-07T04:53:13;3.70;98.50
4635;DHT22;2330;48.158;11.816;2024-03-07T04:55:40;3.60;98.50
4635;DHT22;2330;48.158;11.816;2024-03-07T04:58:06;3.60;98.50
4635;DHT22;2330;48.158;11.816;2024-03-07T05:00:33;3.50;98.50
4635;DHT22;2330;48.158;11.816;2024-03-07T05:03:00;3.50;98.50
4635;DHT22;2330;48.158;11.816;2024-03-07T05:05:27;3.50;98.50
4635;DHT22;2330;48.158;11.816;2024-03-07T05:07:53;3.50;98.50
4635;DHT22;2330;48.158;11.816;2024-03-07T05:10:22;3.50;98.50
4635;DHT22;2330;48.158;11.816;2024-03-07T05:12:49;3.50;98.50
4635;DHT22;2330;48.158;11.816;2024-03-07T05:15:16;3.50;98.50
4635;DHT22;2330;48.158;11.816;2024-03-07T05:17:43;3.40;98.50
4635;DHT22;2330;48.158;11.816;2024-03-07T05:20:11;3.40;98.50
4635;DHT22;2330;48.158;11.816;2024-03-07T05:22:39;3.40;98.50
4635;DHT22;2330;48.158;11.816;2024-03-07T05:25:18;3.40;98.50
4635;DHT22;2330;48.158;11.816;2024-03-07T05:27:51;3.40;98.50
4635;DHT22;2330;48.158;11.816;2024-03-07T05:30:18;3.30;98.50
4635;DHT22;2330;48.158;11.816;2024-03-07T05:32:45;3.30;98.50
4635;DHT22;2330;48.158;11.816;2024-03-07T05:35:12;3.30;98.50
4635;DHT22;2330;48.158;11.816;2024-03-07T05:37:39;3.20;98.50
4635;DHT22;2330;48.158;11.816;2024-03-07T05:40:13;3.20;98.50
4635;DHT22;2330;48.158;11.816;2024-03-07T05:42:40;3.20;98.50
4635;DHT22;2330;48.158;11.816;2024-03-07T05:45:07;3.20;98.50
4635;DHT22;2330;48.158;11.816;2024-03-07T05:47:34;3.10;98.50
4635;DHT22;2330;48.158;11.816;2024-03-07T05:50:01;3.20;98.50
4635;DHT22;2330;48.158;11.816;2024-03-07T05:52:30;3.20;98.50
4635;DHT22;2330;48.158;11.816;2024-03-07T05:54:57;3.10;98.50
4635;DHT22;2330;48.158;11.816;2024-03-07T05:57:24;3.10;98.50
4635;DHT22;2330;48.158;11.816;2024-03-07T05:59:51;3.10;98.50
4635;DHT22;2330;48.158;11.816;2024-03-07T06:02:18;3.20;98.50
4635;DHT22;2330;48.158;11.816;2024-03-07T06:04:46;3.10;98.50
4635;DHT22;2330;48.158;11.816;2024-03-07T06:07:14;3.20;98.50
4635;DHT22;2330;48.158;11.816;2024-03-07T06:09:41;3.20;98.50
4635;DHT22;2330;48.158;11.816;2024-03-07T06:12:08;3.20;98.50
4635;DHT22;2330;48.158;11.816;2024-03-07T06:14:48;3.20;98.50
4635;DHT22;2330;48.158;11.816;2024-03-07T06:17:16;3.20;98.50
4635;DHT22;2330;48.158;11.816;2024-03-07T06:19:46;3.10;98.50
4635;DHT22;2330;48.158;11.816;2024-03-07T06:22:13;3.20;98.50
4635;DHT22;2330;48.158;11.816;2024-03-07T06:24:40;3.10;98.50
4635;DHT22;2330;48.158;11.816;2024-03-07T06:27:09;3.20;98.50
4635;DHT22;2330;48.158;11.816;2024-03-07T06:29:43;3.10;98.50
4635;DHT22;2330;48.158;11.816;2024-03-07T06:32:09;3.10;98.50
4635;DHT22;2330;48.158;11.816;2024-03-07T06:34:36;3.10;98.50
4635;DHT22;2330;48.158;11.816;2024-03-07T06:37:05;3.10;98.50
4635;DHT22;2330;48.158;11.816;2024-03-07T06:39:32;3.10;98.50
4635;DHT22;2330;48.158;11.816;2024-03-07T06:41:59;3.20;98.50
4635;DHT22;2330;48.158;11.816;2024-03-07T06:44:27;3.20;98.50
4635;DHT22;2330;48.158;11.816;2024-03-07T06:46:54;3.20;98.50
4635;DHT22;2330;48.158;11.816;2024-03-07T06:49:20;3.20;98.50
4635;DHT22;2330;48.158;11.816;2024-03-07T06:51:47;3.30;98.50
4635;DHT22;2330;48.158;11.816;2024-03-07T06:54:14;3.30;98.50
4635;DHT22;2330;48.158;11.816;2024-03-07T06:56:41;3.30;98.50
4635;DHT22;2330;48.158;11.816;2024-03-07T06:59:10;3.40;98.50
4635;DHT22;2330;48.158;11.816;2024-03-07T07:01:37;3.40;98.50
4635;DHT22;2330;48.158;11.816;2024-03-07T07:04:04;3.50;98.50
4635;DHT22;2330;48.158;11.816;2024-03-07T07:06:31;3.50;98.50
4635;DHT22;2330;48.158;11.816;2024-03-07T07:08:58;3.50;98.50
4635;DHT22;2330;48.158;11.816;2024-03-07T07:11:25;3.50;98.50
4635;DHT22;2330;48.158;11.816;2024-03-07T07:13:59;3.60;98.50
4635;DHT22;2330;48.158;11.816;2024-03-07T07:16:26;3.60;98.50
4635;DHT22;2330;48.158;11.816;2024-03-07T07:18:53;3.70;98.50
4635;DHT22;2330;48.158;11.816;2024-03-07T07:21:22;3.70;98.50
4635;DHT22;2330;48.158;11.816;2024-03-07T07:23:48;3.70;98.50
4635;DHT22;2330;48.158;11.816;2024-03-07T07:26:16;3.80;98.50
4635;DHT22;2330;48.158;11.816;2024-03-07T07:28:42;3.80;98.50
4635;DHT22;2330;48.158;11.816;2024-03-07T07:31:09;3.90;98.50
4635;DHT22;2330;48.158;11.816;2024-03-07T07:33:36;3.90;98.50
4635;DHT22;2330;48.158;11.816;2024-03-07T07:36:03;3.90;98.50
4635;DHT22;2330;48.158;11.816;2024-03-07T07:38:30;3.90;98.50
4635;DHT22;2330;48.158;11.816;2024-03-07T07:40:58;4.00;98.50
4635;DHT22;2330;48.158;11.816;2024-03-07T07:43:25;4.00;98.50
4635;DHT22;2330;48.158;11.816;2024-03-07T07:46:07;4.00;98.50
4635;DHT22;2330;48.158;11.816;2024-03-07T07:48:34;4.10;98.50
4635;DHT22;2330;48.158;11.816;2024-03-07T07:51:01;4.20;98.50
4635;DHT22;2330;48.158;11.816;2024-03-07T07:53:28;4.20;98.50
4635;DHT22;2330;48.158;11.816;2024-03-07T07:55:55;4.10;98.50
4635;DHT22;2330;48.158;11.816;2024-03-07T07:58:21;4.10;98.50
4635;DHT22;2330;48.158;11.816;2024-03-07T08:00:49;4.10;98.50
4635;DHT22;2330;48.158;11.816;2024-03-07T08:03:16;4.10;98.50
4635;DHT22;2330;48.158;11.816;2024-03-07T08:05:44;4.00;98.50
4635;DHT22;2330;48.158;11.816;2024-03-07T08:08:14;4.00;98.50
4635;DHT22;2330;48.158;11.816;2024-03-07T08:10:43;4.00;98.50
4635;DHT22;2330;48.158;11.816;2024-03-07T08:13:12;4.10;98.50
4635;DHT22;2330;48.158;11.816;2024-03-07T08:15:40;4.00;98.50
4635;DHT22;2330;48.158;11.816;2024-03-07T08:18:07;4.20;98.50
4635;DHT22;2330;48.158;11.816;2024-03-07T08:20:39;4.20;98.50
4635;DHT22;2330;48.158;11.816;2024-03-07T08:23:07;4.20;98.50
4635;DHT22;2330;48.158;11.816;2024-03-07T08:25:35;4.30;98.50
4635;DHT22;2330;48.158;11.816;2024-03-07T08:28:02;4.40;98.50
4635;DHT22;2330;48.158;11.816;2024-03-07T08:30:29;4.50;98.50
4635;DHT22;2330;48.158;11.816;2024-03-07T08:32:57;4.60;98.50
4635;DHT22;2330;48.158;11.816;2024-03-07T08:35:26;4.70;98.50
4635;DHT22;2330;48.158;11.816;2024-03-07T08:37:53;4.80;98.50
4635;DHT22;2330;48.158;11.816;2024-03-07T08:40:23;4.80;98.50
4635;DHT22;2330;48.158;11.816;2024-03-07T08:42:55;4.80;98.50
4635;DHT22;2330;48.158;11.816;2024-03-07T08:45:23;4.90;98.50
4635;DHT22;2330;48.158;11.816;2024-03-07T08:47:52;4.90;98.50
4635;DHT22;2330;48.158;11.816;2024-03-07T08:50:22;5.00;98.50
4635;DHT22;2330;48.158;11.816;2024-03-07T08:52:50;5.10;98.50
4635;DHT22;2330;48.158;11.816;2024-03-07T08:55:19;5.40;98.50
4635;DHT22;2330;48.158;11.816;2024-03-07T08:57:47;5.60;98.50
4635;DHT22;2330;48.158;11.816;2024-03-07T09:00:17;5.70;98.50
4635;DHT22;2330;48.158;11.816;2024-03-07T09:02:59;5.50;98.50
4635;DHT22;2330;48.158;11.816;2024-03-07T09:05:29;5.60;98.50
4635;DHT22;2330;48.158;11.816;2024-03-07T09:07:58;5.60;98.50
4635;DHT22;2330;48.158;11.816;2024-03-07T09:10:25;5.60;98.50
4635;DHT22;2330;48.158;11.816;2024-03-07T09:12:53;5.60;98.50
4635;DHT22;2330;48.158;11.816;2024-03-07T09:15:21;5.40;98.50
4635;DHT22;2330;48.158;11.816;2024-03-07T09:17:50;5.60;98.50
4635;DHT22;2330;48.158;11.816;2024-03-07T09:20:17;5.70;98.50
4635;DHT22;2330;48.158;11.816;2024-03-07T09:22:46;5.80;98.50
4635;DHT22;2330;48.158;11.816;2024-03-07T09:25:18;5.90;98.50
4635;DHT22;2330;48.158;11.816;2024-03-07T09:27:46;6.00;98.50
4635;DHT22;2330;48.158;11.816;2024-03-07T09:30:13;5.80;98.50
4635;DHT22;2330;48.158;11.816;2024-03-07T09:32:42;5.80;98.50
4635;DHT22;2330;48.158;11.816;2024-03-07T09:35:09;5.90;98.50
4635;DHT22;2330;48.158;11.816;2024-03-07T09:37:41;6.10;98.50
4635;DHT22;2330;48.158;11.816;2024-03-07T09:40:10;6.00;98.50
4635;DHT22;2330;48.158;11.816;2024-03-07T09:42:46;6.10;98.50
4635;DHT22;2330;48.158;11.816;2024-03-07T09:45:16;6.20;98.50
4635;DHT22;2330;48.158;11.816;2024-03-07T09:47:48;6.40;98.50
4635;DHT22;2330;48.158;11.816;2024-03-07T09:50:16;6.40;98.50
4635;DHT22;2330;48.158;11.816;2024-03-07T09:52:47;6.40;98.50
4635;DHT22;2330;48.158;11.816;2024-03-07T09:55:18;6.40;98.50
4635;DHT22;2330;48.158;11.816;2024-03-07T09:57:47;6.50;98.50
4635;DHT22;2330;48.158;11.816;2024-03-07T10:00:19;6.40;98.50
4635;DHT22;2330;48.158;11.816;2024-03-07T10:02:54;6.30;98.50
4635;DHT22;2330;48.158;11.816;2024-03-07T10:05:22;6.30;98.50
4635;DHT22;2330;48.158;11.816;2024-03-07T10:07:50;6.30;98.50
4635;DHT22;2330;48.158;11.816;2024-03-07T10:10:19;6.30;98.50
4635;DHT22;2330;48.158;11.816;2024-03-07T10:12:46;6.30;98.50
4635;DHT22;2330;48.158;11.816;2024-03-07T10:15:13;6.30;98.50
4635;DHT22;2330;48.158;11.816;2024-03-07T10:17:41;6.50;98.50
4635;DHT22;2330;48.158;11.816;2024-03-07T10:20:13;6.40;98.50
4635;DHT22;2330;48.158;11.816;2024-03-07T10:22:42;6.50;98.50
4635;DHT22;2330;48.158;11.816;2024-03-07T10:25:09;6.60;98.50
4635;DHT22;2330;48.158;11.816;2024-03-07T10:27:37;6.70;98.50
4635;DHT22;2330;48.158;11.816;2024-03-07T10:30:09;6.80;98.50
4635;DHT22;2330;48.158;11.816;2024-03-07T10:32:36;6.80;98.50
4635;DHT22;2330;48.158;11.816;2024-03-07T10:35:06;6.70;98.50
4635;DHT22;2330;48.158;11.816;2024-03-07T10:37:34;6.70;98.50
4635;DHT22;2330;48.158;11.816;2024-03-07T10:40:03;6.70;98.50
4635;DHT22;2330;48.158;11.816;2024-03-07T10:42:45;6.70;98.50
4635;DHT22;2330;48.158;11.816;2024-03-07T10:45:19;6.90;98.50
4635;DHT22;2330;48.158;11.816;2024-03-07T10:47:55;6.70;98.50
4635;DHT22;2330;48.158;11.816;2024-03-07T10:53:21;6.90;98.50
4635;DHT22;2330;48.158;11.816;2024-03-07T10:56:12;7.10;98.50
4635;DHT22;2330;48.158;11.816;2024-03-07T11:01:23;7.10;98.50
4635;DHT22;2330;48.158;11.816;2024-03-07T11:03:51;7.20;98.50
4635;DHT22;2330;48.158;11.816;2024-03-07T11:06:20;7.60;98.50
4635;DHT22;2330;48.158;11.816;2024-03-07T11:08:47;8.00;98.50
4635;DHT22;2330;48.158;11.816;2024-03-07T11:11:14;8.20;98.50
4635;DHT22;2330;48.158;11.816;2024-03-07T11:13:41;8.30;98.50
4635;DHT22;2330;48.158;11.816;2024-03-07T11:16:09;7.90;98.50
4635;DHT22;2330;48.158;11.816;2024-03-07T11:18:38;7.60;98.50
4635;DHT22;2330;48.158;11.816;2024-03-07T11:21:05;7.60;98.50
4635;DHT22;2330;48.158;11.816;2024-03-07T11:23:35;7.50;98.50
4635;DHT22;2330;48.158;11.816;2024-03-07T11:26:09;7.30;98.50
4635;DHT22;2330;48.158;11.816;2024-03-07T11:28:40;7.20;98.50
4635;DHT22;2330;48.158;11.816;2024-03-07T11:31:20;7.30;98.50
4635;DHT22;2330;48.158;11.816;2024-03-07T11:34:13;7.20;98.50
4635;DHT22;2330;48.158;11.816;2024-03-07T11:36:47;7.40;98.50
4635;DHT22;2330;48.158;11.816;2024-03-07T11:39:44;7.40;98.50
4635;DHT22;2330;48.158;11.816;2024-03-07T11:42:26;7.40;98.50
4635;DHT22;2330;48.158;11.816;2024-03-07T11:44:54;7.50;98.50
4635;DHT22;2330;48.158;11.816;2024-03-07T11:47:25;7.60;98.50
4635;DHT22;2330;48.158;11.816;2024-03-07T11:49:56;7.50;98.50
4635;DHT22;2330;48.158;11.816;2024-03-07T11:52:25;7.50;98.50
4635;DHT22;2330;48.158;11.816;2024-03-07T11:54:54;7.70;98.50
4635;DHT22;2330;48.158;11.816;2024-03-07T11:57:30;7.80;98.50
4635;DHT22;2330;48.158;11.816;2024-03-07T12:00:01;7.80;98.50
4635;DHT22;2330;48.158;11.816;2024-03-07T12:02:37;7.70;98.50
4635;DHT22;2330;48.158;11.816;2024-03-07T12:05:07;7.60;98.50
4635;DHT22;2330;48.158;11.816;2024-03-07T12:07:34;7.70;98.50
4635;DHT22;2330;48.158;11.816;2024-03-07T12:10:02;8.00;98.50
4635;DHT22;2330;48.158;11.816;2024-03-07T12:12:33;8.40;98.50
4635;DHT22;2330;48.158;11.816;2024-03-07T12:15:01;8.60;98.50
4635;DHT22;2330;48.158;11.816;2024-03-07T12:17:36;8.50;98.50
4635;DHT22;2330;48.158;11.816;2024-03-07T12:20:05;8.60;98.50
4635;DHT22;2330;48.158;11.816;2024-03-07T12:22:55;8.70;98.50
4635;DHT22;2330;48.158;11.816;2024-03-07T12:25:23;8.40;98.50
4635;DHT22;2330;48.158;11.816;2024-03-07T12:30:33;8.00;98.50
4635;DHT22;2330;48.158;11.816;2024-03-07T12:33:02;7.60;98.50
4635;DHT22;2330;48.158;11.816;2024-03-07T12:35:34;7.50;98.50
4635;DHT22;2330;48.158;11.816;2024-03-07T12:38:01;7.40;98.50
4635;DHT22;2330;48.158;11.816;2024-03-07T12:40:30;7.20;98.50
4635;DHT22;2330;48.158;11.816;2024-03-07T12:43:00;7.30;98.50
4635;DHT22;2330;48.158;11.816;2024-03-07T12:45:28;7.60;98.50
4635;DHT22;2330;48.158;11.816;2024-03-07T12:47:55;7.80;98.50
4635;DHT22;2330;48.158;11.816;2024-03-07T12:50:23;8.00;98.50
4635;DHT22;2330;48.158;11.816;2024-03-07T12:52:50;7.80;98.50
4635;DHT22;2330;48.158;11.816;2024-03-07T12:55:17;7.80;98.50
4635;DHT22;2330;48.158;11.816;2024-03-07T12:57:45;8.00;98.50
4635;DHT22;2330;48.158;11.816;2024-03-07T13:00:12;7.70;98.50
4635;DHT22;2330;48.158;11.816;2024-03-07T13:02:47;7.80;98.50
4635;DHT22;2330;48.158;11.816;2024-03-07T13:05:14;8.00;98.50
4635;DHT22;2330;48.158;11.816;2024-03-07T13:07:52;8.10;98.50
4635;DHT22;2330;48.158;11.816;2024-03-07T13:10:19;8.20;98.50
4635;DHT22;2330;48.158;11.816;2024-03-07T13:12:47;8.00;98.50
4635;DHT22;2330;48.158;11.816;2024-03-07T13:15:16;7.90;98.50
4635;DHT22;2330;48.158;11.816;2024-03-07T13:17:43;8.10;98.50
4635;DHT22;2330;48.158;11.816;2024-03-07T13:20:11;8.30;98.50
4635;DHT22;2330;48.158;11.816;2024-03-07T13:22:42;8.40;98.50
4635;DHT22;2330;48.158;11.816;2024-03-07T13:25:17;8.10;98.50
4635;DHT22;2330;48.158;11.816;2024-03-07T13:30:37;7.80;98.50
4635;DHT22;2330;48.158;11.816;2024-03-07T13:33:04;7.60;98.50
4635;DHT22;2330;48.158;11.816;2024-03-07T13:35:32;7.30;98.50
4635;DHT22;2330;48.158;11.816;2024-03-07T13:38:00;7.50;98.50
4635;DHT22;2330;48.158;11.816;2024-03-07T13:40:27;7.50;98.50
4635;DHT22;2330;48.158;11.816;2024-03-07T13:42:58;7.40;98.50
4635;DHT22;2330;48.158;11.816;2024-03-07T13:45:28;7.30;98.50
4635;DHT22;2330;48.158;11.816;2024-03-07T13:47:57;7.20;98.50
4635;DHT22;2330;48.158;11.816;2024-03-07T13:50:26;7.20;98.50
4635;DHT22;2330;48.158;11.816;2024-03-07T13:53:17;7.20;98.50
4635;DHT22;2330;48.158;11.816;2024-03-07T13:55:56;7.30;98.50
4635;DHT22;2330;48.158;11.816;2024-03-07T14:01:15;7.10;98.50
4635;DHT22;2330;48.158;11.816;2024-03-07T14:06:42;7.10;98.50
4635;DHT22;2330;48.158;11.816;2024-03-07T14:24:31;7.00;98.50
4635;DHT22;2330;48.158;11.816;2024-03-07T14:27:30;6.90;98.50
4635;DHT22;2330;48.158;11.816;2024-03-07T14:33:08;7.00;98.50
4635;DHT22;2330;48.158;11.816;2024-03-07T14:35:58;6.80;98.50
4635;DHT22;2330;48.158;11.816;2024-03-07T14:38:47;6.70;98.50
4635;DHT22;2330;48.158;11.816;2024-03-07T14:41:17;6.70;98.50
4635;DHT22;2330;48.158;11.816;2024-03-07T14:43:44;6.80;98.50
4635;DHT22;2330;48.158;11.816;2024-03-07T14:46:13;6.80;98.50
4635;DHT22;2330;48.158;11.816;2024-03-07T14:48:40;6.80;98.50
4635;DHT22;2330;48.158;11.816;2024-03-07T14:51:09;6.70;98.50
4635;DHT22;2330;48.158;11.816;2024-03-07T14:53:41;6.80;98.50
4635;DHT22;2330;48.158;11.816;2024-03-07T14:56:09;6.80;98.50
4635;DHT22;2330;48.158;11.816;2024-03-07T14:58:37;6.70;98.50
4635;DHT22;2330;48.158;11.816;2024-03-07T15:01:05;6.60;98.50
4635;DHT22;2330;48.158;11.816;2024-03-07T15:03:33;6.50;98.50
4635;DHT22;2330;48.158;11.816;2024-03-07T15:06:00;6.50;98.50
4635;DHT22;2330;48.158;11.816;2024-03-07T15:08:30;6.50;98.50
4635;DHT22;2330;48.158;11.816;2024-03-07T15:11:11;6.50;98.50
4635;DHT22;2330;48.158;11.816;2024-03-07T15:13:43;6.50;98.50
4635;DHT22;2330;48.158;11.816;2024-03-07T15:16:12;6.50;98.50
4635;DHT22;2330;48.158;11.816;2024-03-07T15:18:58;6.40;98.50
4635;DHT22;2330;48.158;11.816;2024-03-07T15:21:25;6.30;98.50
4635;DHT22;2330;48.158;11.816;2024-03-07T15:23:54;6.10;98.50
4635;DHT22;2330;48.158;11.816;2024-03-07T15:26:21;6.10;98.50
4635;DHT22;2330;48.158;11.816;2024-03-07T15:28:51;6.10;98.50
4635;DHT22;2330;48.158;11.816;2024-03-07T15:31:18;6.20;98.50
4635;DHT22;2330;48.158;11.816;2024-03-07T15:33:48;6.20;98.50
4635;DHT22;2330;48.158;11.816;2024-03-07T15:36:17;6.10;98.50
4635;DHT22;2330;48.158;11.816;2024-03-07T15:38:45;6.10;98.50
4635;DHT22;2330;48.158;11.816;2024-03-07T15:41:13;6.00;98.50
4635;DHT22;2330;48.158;11.816;2024-03-07T15:43:40;6.00;98.50
4635;DHT22;2330;48.158;11.816;2024-03-07T15:46:12;6.00;98.50
4635;DHT22;2330;48.158;11.816;2024-03-07T15:48:40;6.00;98.50
4635;DHT22;2330;48.158;11.816;2024-03-07T15:51:08;6.00;98.50
4635;DHT22;2330;48.158;11.816;2024-03-07T15:53:38;5.90;98.50
4635;DHT22;2330;48.158;11.816;2024-03-07T15:56:07;5.90;98.50
4635;DHT22;2330;48.158;11.816;2024-03-07T15:58:34;5.90;98.50
4635;DHT22;2330;48.158;11.816;2024-03-07T16:01:02;5.90;98.50
4635;DHT22;2330;48.158;11.816;2024-03-07T16:03:28;5.90;98.50
4635;DHT22;2330;48.158;11.816;2024-03-07T16:05:55;5.90;98.50
4635;DHT22;2330;48.158;11.816;2024-03-07T16:08:23;5.80;98.50
4635;DHT22;2330;48.158;11.816;2024-03-07T16:10:51;5.70;98.50
4635;DHT22;2330;48.158;11.816;2024-03-07T16:13:18;5.80;98.50
4635;DHT22;2330;48.158;11.816;2024-03-07T16:15:45;5.80;98.50
4635;DHT22;2330;48.158;11.816;2024-03-07T16:18:13;5.70;98.50
4635;DHT22;2330;48.158;11.816;2024-03-07T16:20:43;5.70;98.50
4635;DHT22;2330;48.158;11.816;2024-03-07T16:23:15;5.60;98.50
4635;DHT22;2330;48.158;11.816;2024-03-07T16:25:43;5.70;98.50
4635;DHT22;2330;48.158;11.816;2024-03-07T16:28:10;5.70;98.50
4635;DHT22;2330;48.158;11.816;2024-03-07T16:30:38;5.70;98.50
4635;DHT22;2330;48.158;11.816;2024-03-07T16:33:11;5.70;98.50
4635;DHT22;2330;48.158;11.816;2024-03-07T16:35:39;5.70;98.50
4635;DHT22;2330;48.158;11.816;2024-03-07T16:38:06;5.60;98.50
4635;DHT22;2330;48.158;11.816;2024-03-07T16:40:36;5.60;98.50
4635;DHT22;2330;48.158;11.816;2024-03-07T16:43:09;5.60;98.50
4635;DHT22;2330;48.158;11.816;2024-03-07T16:45:39;5.40;98.50
4635;DHT22;2330;48.158;11.816;2024-03-07T16:48:06;5.30;98.50